createdAt,value
2019-03-17T00:02:11.023Z,9.10
2019-03-17T00:04:50.812Z,9.00
2019-03-17T00:07:31.511Z,8.90
2019-03-17T00:10:11.916Z,8.90
2019-03-17T00:12:51.297Z,8.90
2019-03-17T00:15:31.618Z,8.90
2019-03-17T00:18:11.694Z,8.90
2019-03-17T00:20:51.642Z,8.80
2019-03-17T00:23:31.603Z,8.90
2019-03-17T00:26:11.838Z,8.90
2019-03-17T00:31:38.320Z,8.80
2019-03-17T00:34:18.834Z,8.90
2019-03-17T00:36:58.462Z,8.90
2019-03-17T00:39:38.380Z,8.90
2019-03-17T00:42:22.229Z,9.00
2019-03-17T00:45:06.538Z,8.90
2019-03-17T00:47:46.699Z,8.90
2019-03-17T00:53:09.913Z,9.00
2019-03-17T00:55:50.078Z,9.00
2019-03-17T00:58:29.696Z,8.90
2019-03-17T01:01:10.166Z,8.90
2019-03-17T01:03:50.298Z,8.90
2019-03-17T01:06:33.745Z,8.90
2019-03-17T01:11:53.777Z,9.00
2019-03-17T01:14:33.668Z,8.90
2019-03-17T01:17:13.769Z,9.00
2019-03-17T01:22:39.887Z,8.90
2019-03-17T01:25:20.510Z,8.90
2019-03-17T01:28:00.101Z,8.70
2019-03-17T01:30:39.961Z,8.70
2019-03-17T01:33:19.865Z,8.70
2019-03-17T01:36:00.952Z,8.70
2019-03-17T01:38:41.595Z,8.70
2019-03-17T01:41:21.625Z,8.70
2019-03-17T01:44:01.162Z,8.70
2019-03-17T01:46:41.468Z,8.70
2019-03-17T01:49:21.430Z,8.90
2019-03-17T01:52:01.602Z,9.00
2019-03-17T01:54:42.195Z,9.00
2019-03-17T01:57:22.744Z,9.00
2019-03-17T02:00:02.590Z,9.00
2019-03-17T02:02:43.540Z,9.20
2019-03-17T02:08:03.319Z,9.40
2019-03-17T02:10:43.676Z,9.40
2019-03-17T02:13:23.497Z,9.40
2019-03-17T02:16:03.729Z,9.40
2019-03-17T02:18:44.049Z,9.40
2019-03-17T02:21:23.696Z,9.40
2019-03-17T02:24:04.091Z,9.40
2019-03-17T02:26:44.361Z,9.40
2019-03-17T02:29:24.821Z,9.40
2019-03-17T02:34:54.121Z,9.40
2019-03-17T02:37:33.611Z,9.50
2019-03-17T02:40:13.928Z,9.50
2019-03-17T02:42:53.918Z,9.50
2019-03-17T02:45:33.505Z,9.50
2019-03-17T02:48:20.546Z,9.60
2019-03-17T02:51:00.961Z,9.60
2019-03-17T02:53:40.696Z,9.60
2019-03-17T02:56:20.830Z,9.70
2019-03-17T02:59:04.433Z,9.50
2019-03-17T03:01:43.794Z,9.40
2019-03-17T03:04:24.322Z,9.50
2019-03-17T03:07:07.915Z,9.40
2019-03-17T03:09:52.006Z,9.40
2019-03-17T03:12:32.782Z,9.40
2019-03-17T03:15:13.107Z,9.40
2019-03-17T03:17:54.758Z,9.40
2019-03-17T03:20:34.160Z,9.40
2019-03-17T03:23:14.462Z,9.50
2019-03-17T03:25:54.531Z,9.40
2019-03-17T03:28:34.800Z,9.20
2019-03-17T03:31:03.257Z,9.20
2019-03-17T03:33:53.133Z,9.20
2019-03-17T03:39:13.501Z,9.30
2019-03-17T03:41:41.141Z,9.20
2019-03-17T03:44:28.126Z,9.20
2019-03-17T03:47:08.393Z,9.30
2019-03-17T03:49:48.563Z,9.30
2019-03-17T03:52:28.449Z,9.20
2019-03-17T03:55:08.438Z,9.10
2019-03-17T03:57:50.290Z,9.10
2019-03-17T04:00:30.743Z,9.10
2019-03-17T04:03:10.876Z,9.10
2019-03-17T04:05:51.480Z,9.10
2019-03-17T04:08:30.990Z,9.10
2019-03-17T04:11:11.442Z,9.20
2019-03-17T04:13:51.528Z,9.20
2019-03-17T04:16:31.552Z,9.20
2019-03-17T04:18:58.922Z,9.30
2019-03-17T04:21:45.629Z,9.30
2019-03-17T04:24:25.980Z,9.40
2019-03-17T04:29:52.064Z,9.40
2019-03-17T04:32:32.450Z,9.30
2019-03-17T04:35:12.350Z,9.20
2019-03-17T04:37:52.526Z,9.30
2019-03-17T04:40:33.360Z,9.30
2019-03-17T04:43:12.839Z,9.20
2019-03-17T04:45:53.777Z,9.20
2019-03-17T04:51:20.481Z,9.20
2019-03-17T04:54:00.027Z,9.30
2019-03-17T04:56:40.293Z,9.30
2019-03-17T04:59:20.189Z,9.40
2019-03-17T05:02:00.543Z,9.30
2019-03-17T05:04:44.588Z,9.40
2019-03-17T05:13:16.635Z,9.40
2019-03-17T05:16:03.629Z,9.40
2019-03-17T05:18:44.030Z,9.40
2019-03-17T05:21:24.127Z,9.40
2019-03-17T05:24:04.483Z,9.50
2019-03-17T05:26:44.432Z,9.50
2019-03-17T05:29:24.575Z,9.40
2019-03-17T05:32:05.220Z,9.40
2019-03-17T05:34:49.186Z,9.40
2019-03-17T05:37:29.039Z,9.50
2019-03-17T05:40:08.880Z,9.50
2019-03-17T05:42:48.824Z,9.50
2019-03-17T05:45:29.014Z,9.60
2019-03-17T05:48:09.419Z,9.70
2019-03-17T05:50:50.031Z,9.70
2019-03-17T05:53:30.703Z,9.80
2019-03-17T05:56:11.960Z,9.80
2019-03-17T05:58:53.263Z,9.80
2019-03-17T06:01:35.451Z,9.80
2019-03-17T06:04:04.302Z,9.80
2019-03-17T06:06:51.209Z,9.90
2019-03-17T06:09:31.779Z,9.90
2019-03-17T06:14:45.674Z,10.00
2019-03-17T06:17:32.345Z,10.10
2019-03-17T06:20:12.406Z,10.20
2019-03-17T06:22:53.371Z,10.20
2019-03-17T06:25:36.940Z,10.30
2019-03-17T06:28:04.085Z,10.20
2019-03-17T06:30:31.275Z,10.20
2019-03-17T06:32:58.875Z,10.20
2019-03-17T06:35:40.756Z,10.10
2019-03-17T06:38:23.067Z,10.10
2019-03-17T06:40:50.459Z,10.10
2019-03-17T06:43:37.266Z,10.10
2019-03-17T06:46:05.102Z,10.10
2019-03-17T06:48:54.052Z,10.10
2019-03-17T06:51:33.648Z,10.10
2019-03-17T06:54:14.293Z,10.10
2019-03-17T06:57:00.296Z,10.20
2019-03-17T06:59:40.392Z,10.20
2019-03-17T07:02:20.311Z,10.20
2019-03-17T07:05:00.962Z,10.20
2019-03-17T07:07:44.279Z,10.10
2019-03-17T07:10:25.548Z,10.10
2019-03-17T07:13:05.717Z,10.10
2019-03-17T07:15:49.377Z,10.10
2019-03-17T07:18:29.683Z,10.20
2019-03-17T07:21:10.255Z,10.20
2019-03-17T07:26:37.184Z,10.30
2019-03-17T07:29:17.679Z,10.30
2019-03-17T07:31:57.582Z,10.30
2019-03-17T07:34:37.834Z,10.50
2019-03-17T07:37:17.734Z,10.50
2019-03-17T07:39:58.297Z,10.60
2019-03-17T07:42:38.766Z,10.60
2019-03-17T07:45:19.094Z,10.60
2019-03-17T07:48:02.606Z,10.70
2019-03-17T07:50:43.607Z,10.80
2019-03-17T07:53:23.615Z,10.60
2019-03-17T07:56:02.918Z,10.50
2019-03-17T07:58:43.915Z,10.60
2019-03-17T08:01:25.933Z,10.50
2019-03-17T08:04:05.349Z,10.50
2019-03-17T08:06:45.485Z,10.50
2019-03-17T08:12:05.232Z,10.60
2019-03-17T08:14:45.727Z,10.60
2019-03-17T08:17:27.751Z,10.50
2019-03-17T08:20:08.124Z,10.60
2019-03-17T08:22:48.114Z,10.60
2019-03-17T08:25:28.405Z,10.70
2019-03-17T08:27:55.812Z,10.70
2019-03-17T08:30:36.003Z,10.80
2019-03-17T08:33:16.245Z,10.80
2019-03-17T08:35:57.133Z,10.90
2019-03-17T08:38:36.820Z,11.00
2019-03-17T08:41:16.629Z,11.10
2019-03-17T08:43:57.032Z,11.20
2019-03-17T08:46:37.106Z,11.30
2019-03-17T08:49:17.159Z,11.20
2019-03-17T08:51:57.620Z,11.20
2019-03-17T08:54:37.459Z,11.30
2019-03-17T08:57:18.483Z,11.40
2019-03-17T08:59:59.046Z,11.40
2019-03-17T09:02:41.205Z,11.20
2019-03-17T09:05:21.103Z,11.30
2019-03-17T09:08:01.064Z,11.20
2019-03-17T09:10:42.590Z,11.10
2019-03-17T09:13:22.145Z,11.20
2019-03-17T09:16:02.267Z,11.10
2019-03-17T09:18:42.371Z,11.00
2019-03-17T09:21:22.428Z,11.10
2019-03-17T09:24:02.674Z,11.10
2019-03-17T09:26:44.483Z,11.00
2019-03-17T09:29:24.718Z,11.00
2019-03-17T09:32:04.997Z,11.00
2019-03-17T09:34:45.209Z,11.10
2019-03-17T09:37:25.353Z,11.20
2019-03-17T09:40:06.086Z,11.30
2019-03-17T09:45:32.655Z,11.20
2019-03-17T09:48:13.522Z,11.30
2019-03-17T09:50:52.918Z,11.40
2019-03-17T09:53:33.684Z,11.40
2019-03-17T09:56:13.637Z,11.40
2019-03-17T10:01:27.535Z,11.10
2019-03-17T10:04:14.591Z,10.90
2019-03-17T10:06:54.786Z,10.70
2019-03-17T10:09:38.250Z,10.60
2019-03-17T10:18:01.253Z,10.20
2019-03-17T10:20:48.197Z,10.00
2019-03-17T10:23:27.684Z,9.90
2019-03-17T10:25:56.254Z,9.90
2019-03-17T10:28:23.355Z,9.90
2019-03-17T10:33:37.241Z,9.80
2019-03-17T10:36:05.085Z,9.60
2019-03-17T10:38:32.490Z,9.50
2019-03-17T10:40:59.432Z,9.50
2019-03-17T10:43:26.922Z,9.50
2019-03-17T10:45:53.781Z,9.30
2019-03-17T10:54:22.175Z,9.20
2019-03-17T10:57:02.274Z,9.30
2019-03-17T10:59:42.224Z,9.30
2019-03-17T11:02:33.089Z,9.20
2019-03-17T11:05:18.168Z,9.20
2019-03-17T11:10:45.397Z,9.00
2019-03-17T11:13:31.292Z,8.90
2019-03-17T11:18:58.328Z,8.80
2019-03-17T11:24:24.820Z,8.80
2019-03-17T11:27:04.481Z,8.80
2019-03-17T11:32:26.329Z,8.70
2019-03-17T11:34:53.930Z,8.70
2019-03-17T11:37:23.664Z,8.70
2019-03-17T11:48:12.027Z,8.50
2019-03-17T11:50:59.046Z,8.40
2019-03-17T11:56:30.675Z,8.40
2019-03-17T11:58:58.305Z,8.20
2019-03-17T12:01:25.468Z,8.10
2019-03-17T12:03:53.095Z,8.00
2019-03-17T12:06:21.489Z,8.00
2019-03-17T12:08:49.611Z,7.90
2019-03-17T12:11:17.081Z,7.90
2019-03-17T12:16:40.397Z,7.60
2019-03-17T12:19:08.673Z,7.50
2019-03-17T12:22:08.223Z,7.50
2019-03-17T12:24:57.526Z,7.40
2019-03-17T12:30:31.400Z,7.20
2019-03-17T12:35:54.712Z,7.00
2019-03-17T12:38:21.669Z,7.00
2019-03-17T12:40:49.059Z,7.00
2019-03-17T12:43:16.215Z,6.90
2019-03-17T12:45:43.402Z,6.90
2019-03-17T12:48:11.101Z,6.80
2019-03-17T12:50:39.062Z,6.90
2019-03-17T12:53:07.922Z,6.80
2019-03-17T12:55:55.490Z,6.80
2019-03-17T12:58:36.176Z,6.80
2019-03-17T13:01:20.174Z,6.80
2019-03-17T13:04:03.635Z,6.80
2019-03-17T13:06:47.473Z,6.70
2019-03-17T13:09:15.506Z,6.70
2019-03-17T13:12:02.674Z,6.70
2019-03-17T13:17:38.092Z,6.70
2019-03-17T13:20:20.566Z,6.70
2019-03-17T13:22:48.042Z,6.60
2019-03-17T13:25:35.367Z,6.70
2019-03-17T13:28:15.742Z,6.70
2019-03-17T13:33:50.154Z,6.80
2019-03-17T13:36:34.887Z,6.80
2019-03-17T13:39:15.200Z,6.70
2019-03-17T13:41:57.364Z,6.70
2019-03-17T13:44:25.089Z,6.70
2019-03-17T13:47:14.726Z,6.80
2019-03-17T13:49:56.570Z,6.80
2019-03-17T13:55:20.815Z,6.90
2019-03-17T14:00:57.359Z,7.00
2019-03-17T14:03:37.618Z,7.00
2019-03-17T14:06:21.471Z,7.00
2019-03-17T14:08:48.968Z,7.00
2019-03-17T14:11:16.445Z,7.10
2019-03-17T14:13:43.654Z,7.20
2019-03-17T14:16:11.494Z,7.20
2019-03-17T14:18:38.888Z,7.30
2019-03-17T14:21:07.094Z,7.30
2019-03-17T14:23:34.277Z,7.30
2019-03-17T14:26:01.279Z,7.40
2019-03-17T14:28:29.319Z,7.40
2019-03-17T14:30:57.794Z,7.40
2019-03-17T14:33:24.779Z,7.50
2019-03-17T14:35:51.811Z,7.70
2019-03-17T14:38:18.811Z,7.80
2019-03-17T14:40:53.241Z,7.90
2019-03-17T14:43:19.667Z,8.10
2019-03-17T14:45:47.196Z,8.40
2019-03-17T14:48:27.983Z,9.10
2019-03-17T14:51:09.290Z,9.00
2019-03-17T14:56:40.765Z,9.30
2019-03-17T14:59:21.675Z,9.50
2019-03-17T15:02:08.307Z,9.70
2019-03-17T15:04:49.302Z,9.70
2019-03-17T15:07:29.760Z,9.70
2019-03-17T15:12:59.778Z,9.80
2019-03-17T15:15:41.823Z,10.20
2019-03-17T15:18:21.863Z,9.70
2019-03-17T15:20:48.923Z,9.50
2019-03-17T15:23:16.206Z,9.50
2019-03-17T15:25:43.832Z,9.50
2019-03-17T15:28:11.180Z,9.20
2019-03-17T15:30:38.256Z,8.90
2019-03-17T15:33:05.605Z,8.70
2019-03-17T15:35:32.975Z,8.80
2019-03-17T15:38:00.775Z,8.80
2019-03-17T15:40:28.325Z,8.80
2019-03-17T15:42:55.654Z,8.70
2019-03-17T15:45:25.108Z,8.70
2019-03-17T15:47:58.693Z,8.70
2019-03-17T15:50:27.212Z,8.70
2019-03-17T15:52:54.817Z,8.70
2019-03-17T15:55:22.315Z,8.60
2019-03-17T15:57:49.721Z,8.70
2019-03-17T16:00:24.614Z,8.70
2019-03-17T16:02:46.799Z,8.80
2019-03-17T16:05:30.485Z,8.70
2019-03-17T16:07:58.114Z,8.60
2019-03-17T16:10:25.705Z,8.60
2019-03-17T16:12:53.147Z,8.70
2019-03-17T16:15:20.916Z,8.60
2019-03-17T16:17:48.745Z,8.60
2019-03-17T16:20:16.724Z,8.50
2019-03-17T16:22:47.246Z,8.40
2019-03-17T16:25:14.945Z,8.40
2019-03-17T16:27:41.983Z,8.30
2019-03-17T16:30:29.127Z,8.10
2019-03-17T16:33:11.588Z,7.80
2019-03-17T16:39:01.560Z,7.30
2019-03-17T16:41:43.767Z,7.20
2019-03-17T16:44:24.236Z,7.10
2019-03-17T16:47:04.516Z,7.00
2019-03-17T16:52:35.449Z,6.90
2019-03-17T16:57:56.530Z,6.90
2019-03-17T17:00:23.655Z,6.90
2019-03-17T17:02:51.445Z,6.80
2019-03-17T17:05:18.753Z,6.80
2019-03-17T17:07:46.424Z,6.80
2019-03-17T17:10:15.166Z,6.80
2019-03-17T17:12:42.697Z,6.70
2019-03-17T17:15:12.784Z,6.60
2019-03-17T17:17:40.761Z,6.50
2019-03-17T17:20:13.624Z,6.40
2019-03-17T17:22:41.573Z,6.30
2019-03-17T17:25:21.807Z,6.30
2019-03-17T17:27:49.130Z,6.30
2019-03-17T17:30:36.251Z,6.20
2019-03-17T17:33:27.716Z,6.20
2019-03-17T17:36:15.264Z,6.10
2019-03-17T17:39:03.140Z,6.10
2019-03-17T17:41:43.626Z,6.00
2019-03-17T17:44:23.419Z,5.90
2019-03-17T17:47:02.976Z,5.90
2019-03-17T17:49:43.086Z,5.90
2019-03-17T17:52:23.248Z,5.90
2019-03-17T17:57:52.820Z,5.70
2019-03-17T18:03:22.570Z,5.80
2019-03-17T18:06:06.995Z,5.80
2019-03-17T18:08:46.624Z,5.80
2019-03-17T18:11:28.655Z,5.80
2019-03-17T18:14:09.173Z,5.90
2019-03-17T18:19:34.935Z,6.00
2019-03-17T18:25:06.547Z,6.00
2019-03-17T18:27:47.049Z,6.00
2019-03-17T18:30:14.811Z,6.00
2019-03-17T18:33:04.017Z,5.90
2019-03-17T18:35:44.224Z,5.90
2019-03-17T18:38:23.897Z,5.80
2019-03-17T18:41:03.312Z,5.90
2019-03-17T18:43:43.329Z,5.90
2019-03-17T18:46:24.213Z,5.80
2019-03-17T18:49:04.581Z,5.80
2019-03-17T18:51:44.489Z,5.80
2019-03-17T18:54:25.155Z,5.90
2019-03-17T18:57:04.990Z,5.80
2019-03-17T18:59:46.004Z,5.90
2019-03-17T19:02:27.567Z,5.90
2019-03-17T19:05:07.796Z,5.80
2019-03-17T19:10:32.014Z,5.80
2019-03-17T19:13:10.791Z,5.70
2019-03-17T19:15:57.574Z,5.60
2019-03-17T19:18:37.803Z,5.50
2019-03-17T19:21:17.844Z,5.40
2019-03-17T19:23:58.304Z,5.30
2019-03-17T19:26:38.784Z,5.30
2019-03-17T19:29:19.450Z,5.30
2019-03-17T19:32:01.380Z,5.30
2019-03-17T19:37:37.306Z,5.20
2019-03-17T19:40:17.284Z,5.20
2019-03-17T19:42:59.680Z,5.10
2019-03-17T19:45:44.080Z,5.10
2019-03-17T19:51:20.166Z,5.00
2019-03-17T19:53:59.867Z,4.90
2019-03-17T19:56:39.839Z,4.90
2019-03-17T19:59:19.829Z,4.80
2019-03-17T20:02:01.536Z,4.80
2019-03-17T20:04:40.972Z,4.70
2019-03-17T20:07:21.388Z,4.60
2019-03-17T20:10:01.911Z,4.50
2019-03-17T20:12:42.082Z,4.50
2019-03-17T20:15:22.508Z,4.50
2019-03-17T20:18:03.350Z,4.40
2019-03-17T20:20:43.971Z,4.40
2019-03-17T20:23:24.704Z,4.30
2019-03-17T20:25:52.242Z,4.30
2019-03-17T20:28:39.780Z,4.20
2019-03-17T20:31:19.569Z,4.20
2019-03-17T20:34:00.401Z,4.10
2019-03-17T20:36:40.811Z,4.10
2019-03-17T20:39:20.944Z,4.10
2019-03-17T20:44:38.155Z,4.00
2019-03-17T20:47:25.206Z,4.00
2019-03-17T20:50:04.590Z,3.90
2019-03-17T20:52:44.996Z,4.00
2019-03-17T20:55:25.115Z,4.10
2019-03-17T20:58:04.806Z,4.20
2019-03-17T21:00:44.808Z,4.40
2019-03-17T21:03:26.549Z,4.60
2019-03-17T21:06:06.848Z,4.80
2019-03-17T21:08:46.983Z,5.10
2019-03-17T21:11:28.343Z,5.00
2019-03-17T21:14:08.923Z,4.70
2019-03-17T21:16:37.231Z,4.60
2019-03-17T21:19:24.774Z,4.40
2019-03-17T21:22:05.457Z,4.40
2019-03-17T21:24:44.979Z,4.40
2019-03-17T21:27:25.151Z,4.30
2019-03-17T21:30:04.668Z,4.30
2019-03-17T21:32:45.775Z,4.30
2019-03-17T21:35:13.016Z,4.20
2019-03-17T21:38:01.676Z,4.10
2019-03-17T21:40:56.467Z,4.20
2019-03-17T21:43:11.425Z,4.10
2019-03-17T21:45:58.067Z,4.00
2019-03-17T21:48:37.962Z,3.90
2019-03-17T21:51:18.118Z,3.90
2019-03-17T21:54:02.203Z,3.80
2019-03-17T21:59:31.965Z,3.70
2019-03-17T22:02:13.293Z,3.50
2019-03-17T22:04:53.042Z,3.50
2019-03-17T22:07:33.125Z,3.30
2019-03-17T22:10:13.619Z,3.30
2019-03-17T22:12:53.211Z,3.10
2019-03-17T22:15:33.423Z,3.10
2019-03-17T22:18:13.242Z,3.00
2019-03-17T22:20:40.618Z,3.00
2019-03-17T22:23:47.183Z,3.00
2019-03-17T22:26:27.357Z,3.00
2019-03-17T22:29:13.486Z,3.00
2019-03-17T22:31:53.628Z,3.00
2019-03-17T22:34:33.207Z,3.00
2019-03-17T22:37:16.981Z,3.00
2019-03-17T22:39:58.748Z,3.10
2019-03-17T22:42:38.813Z,3.10
2019-03-17T22:45:06.632Z,3.10
2019-03-17T22:47:53.763Z,3.10
2019-03-17T22:50:34.478Z,3.00
2019-03-17T22:53:14.004Z,3.00
2019-03-17T22:55:53.895Z,2.90
2019-03-17T22:58:35.730Z,2.80
2019-03-17T23:01:44.498Z,2.70
2019-03-17T23:04:31.255Z,2.60
2019-03-17T23:07:10.563Z,2.60
2019-03-17T23:09:51.847Z,2.60
2019-03-17T23:12:36.020Z,2.60
2019-03-17T23:18:01.533Z,2.50
2019-03-17T23:20:41.980Z,2.50
2019-03-17T23:23:22.051Z,2.50
2019-03-17T23:26:06.021Z,2.50
2019-03-17T23:31:23.421Z,2.70
2019-03-17T23:34:12.315Z,2.90
2019-03-17T23:36:52.570Z,2.90
2019-03-17T23:39:19.989Z,3.00
2019-03-17T23:41:47.070Z,3.00
2019-03-17T23:44:16.350Z,2.90
2019-03-17T23:47:03.653Z,2.80
2019-03-17T23:49:44.129Z,2.90
2019-03-17T23:55:07.765Z,2.90
2019-03-17T23:57:47.984Z,2.80
